Corea, ME (04624)

7:15 PM EST on January 17, 2017 (GMT -0500)
Sand Cove | | Change Station
Active Advisory: Small Craft Advisory

Elev 62 ft 44.41 °N, 68.01 °W | Updated 2 seconds ago

Partly Cloudy
Partly Cloudy
26.1 °F
Feels Like 26 °F
N
1.2
Wind Variable Wind from NE
Gusts 4.0 mph

Today
High -- | Low -- °F
--% Chance of Precip.
Yesterday
High -- | Low -- °F
Precip. -- in
Pressure 30.29 in
Visibility 10.0 miles
Clouds Clear
Windchill 26 °F
Dew Point 11 °F
Humidity 51%
Rainfall 0.00 in
Snow Depth Not available.
7:03 AM 4:21 PM
Waning Gibbous, 68% visible
METAR KBHB 172356Z AUTO 05006KT 10SM CLR M03/M11 A3028 RMK AO2 SLP257 T10281106 10022 21028 50006 FZRANO
Pressure 30.29 in
Visibility 10.0 miles
Clouds Clear
Windchill 26 °F
Dew Point 11 °F
Humidity 51%
Rainfall 0.00 in
Snow Depth Not available.
7:03 AM 4:21 PM
Waning Gibbous, 68% visible
METAR KBHB 172356Z AUTO 05006KT 10SM CLR M03/M11 A3028 RMK AO2 SLP257 T10281106 10022 21028 50006 FZRANO

Get Your Daily Forecast Email!

Thanks for signing up!

Be on the lookout for a verification email in your inbox.

You'll start receiving the daily forecast at 8 AM.

×

10-Day Weather Forecast

Almanac

Astronomy

Jan. 17, 2017 Rise Set
Actual Time
Civil Twilight
Nautical Twilight
Astronomical Twilight
Moon
Length of Visible Light
Length of Day
Tomorrow will be .
, % of the Moon is Illuminated

Today's Extremes

State Highs State Lows

Community

WunderPhotos

Upload Photos

1,962,540 photos uploaded!

WunderBlog® & News

Nearby

Air Quality

  Air Quality AQ Index Pollutant
Not available.

Snow Depth

Station Depth Elevation

Earthquake Activity

City Distance Mag. Time & Date
Minimum magnitude displayed is 2.5.

Coastal Water Temperatures

Place Temperature

Stations

Nearby Weather Stations

Station Location Temp. Windchill Dew Point Humidity Wind Precip. Elev Updated Type
                   

Watches & Warnings

Small Craft Advisory
Issued: 3:02 PM EST Jan. 17, 2017 – National Weather Service

... Small Craft Advisory now in effect from 4 am to 7 PM EST
Wednesday...

* winds and seas... east winds 15 to 20 kt with gusts up to 30
kt. Seas 3 to 6 feet.

Precautionary/preparedness actions...

A Small Craft Advisory means that wind speeds of 25 to 33 knots
are expected to produce hazardous wave conditions to small craft.
Inexperienced mariners... especially those operating smaller
vessels should avoid navigating in these conditions.